TimePST,TemperatureF,Dew PointF,Humidity,Sea Level PressureIn,VisibilityMPH,Wind Direction,Wind SpeedMPH,Gust SpeedMPH,PrecipitationIn,Events,Conditions,WindDirDegrees,DateUTC
12:08 AM,46.4,46.4,100,30.10,1.0,East,2.3,-,N/A,,Clear,80,2013-01-09 08:08:00
12:13 AM,46.4,46.4,100,30.10,0.8,Calm,Calm,-,N/A,,Clear,0,2013-01-09 08:13:00
12:18 AM,46.4,46.4,100,30.10,1.0,SSE,1.2,-,N/A,,Clear,160,2013-01-09 08:18:00
12:23 AM,44.6,44.6,100,30.10,1.8,Calm,Calm,-,N/A,,Clear,0,2013-01-09 08:23:00
12:28 AM,44.6,44.6,100,30.10,2.5,SSE,2.3,-,N/A,,Clear,160,2013-01-09 08:28:00
12:33 AM,44.6,44.6,100,30.10,4.0,ESE,2.3,-,N/A,,Clear,110,2013-01-09 08:33:00
12:43 AM,44.6,44.6,100,30.10,2.0,ESE,2.3,-,N/A,,Clear,110,2013-01-09 08:43:00
12:53 AM,44.6,44.6,100,30.10,4.0,East,2.3,-,N/A,,Clear,80,2013-01-09 08:53:00
12:58 AM,44.6,44.6,100,30.11,1.0,East,2.3,-,N/A,,Clear,90,2013-01-09 08:58:00
1:03 AM,44.6,44.6,100,30.10,0.5,NE,2.3,-,N/A,Fog,Fog,50,2013-01-09 09:03:00
1:23 AM,44.6,44.6,100,30.10,0.8,ENE,2.3,-,N/A,,Clear,70,2013-01-09 09:23:00
1:28 AM,46.4,46.4,100,30.10,1.2,NE,3.5,-,N/A,,Clear,50,2013-01-09 09:28:00
1:33 AM,46.4,46.4,100,30.10,1.0,NNE,1.2,-,N/A,,Clear,30,2013-01-09 09:33:00
1:38 AM,46.4,46.4,100,30.10,0.5,Calm,Calm,-,N/A,Fog,Fog,0,2013-01-09 09:38:00
1:43 AM,46.4,46.4,100,30.10,0.8,Calm,Calm,-,N/A,,Clear,0,2013-01-09 09:43:00
1:48 AM,46.4,46.4,100,30.10,0.5,ENE,2.3,-,N/A,Fog,Fog,60,2013-01-09 09:48:00
1:58 AM,43.7,43.7,100,30.11,0.2,North,2.3,-,N/A,Fog,Fog,10,2013-01-09 09:58:00
2:03 AM,44.6,44.6,100,30.10,0.8,NNE,2.3,-,N/A,,Clear,20,2013-01-09 10:03:00
2:08 AM,44.6,44.6,100,30.10,3.0,NNE,2.3,-,N/A,,Clear,30,2013-01-09 10:08:00
2:23 AM,44.6,44.6,100,30.11,2.5,Calm,Calm,-,N/A,,Clear,0,2013-01-09 10:23:00
2:33 AM,44.6,44.6,100,30.11,1.8,Calm,Calm,-,N/A,,Clear,0,2013-01-09 10:33:00
2:38 AM,44.6,44.6,100,30.11,2.0,Calm,Calm,-,N/A,,Clear,0,2013-01-09 10:38:00
2:48 AM,42.8,42.8,100,30.11,1.5,Calm,Calm,-,N/A,,Clear,0,2013-01-09 10:48:00
2:53 AM,42.8,42.8,100,30.11,1.2,Calm,Calm,-,N/A,,Clear,0,2013-01-09 10:53:00
2:58 AM,44.6,44.6,100,30.12,2.0,Calm,Calm,-,N/A,,Clear,0,2013-01-09 10:58:00
3:03 AM,44.6,44.6,100,30.11,1.5,Calm,Calm,-,N/A,,Clear,0,2013-01-09 11:03:00
3:08 AM,42.8,42.8,100,30.10,0.8,Calm,Calm,-,N/A,,Clear,0,2013-01-09 11:08:00
3:13 AM,42.8,42.8,100,30.10,0.5,Calm,Calm,-,N/A,Fog,Fog,0,2013-01-09 11:13:00
3:18 AM,42.8,42.8,100,30.10,0.8,Calm,Calm,-,N/A,,Clear,0,2013-01-09 11:18:00
3:23 AM,42.8,42.8,100,30.10,1.2,Calm,Calm,-,N/A,,Clear,0,2013-01-09 11:23:00
3:28 AM,44.6,44.6,100,30.09,1.5,North,2.3,-,N/A,,Clear,360,2013-01-09 11:28:00
3:33 AM,44.6,44.6,100,30.10,2.0,Calm,Calm,-,N/A,,Clear,0,2013-01-09 11:33:00
3:38 AM,42.8,42.8,100,30.10,1.8,Calm,Calm,-,N/A,,Clear,0,2013-01-09 11:38:00
3:43 AM,42.8,42.8,100,30.09,0.8,Calm,Calm,-,N/A,,Clear,0,2013-01-09 11:43:00
3:48 AM,42.8,42.8,100,30.09,1.2,Calm,Calm,-,N/A,,Clear,0,2013-01-09 11:48:00
3:53 AM,42.8,42.8,100,30.09,3.0,Calm,Calm,-,N/A,,Clear,0,2013-01-09 11:53:00
3:58 AM,42.8,42.8,100,30.10,0.8,NNE,2.3,-,N/A,,Clear,20,2013-01-09 11:58:00
4:03 AM,42.8,42.8,100,30.09,0.5,WNW,2.3,-,N/A,Fog,Fog,300,2013-01-09 12:03:00
4:08 AM,41.0,41.0,100,30.09,0.8,NW,2.3,-,N/A,,Clear,310,2013-01-09 12:08:00
4:13 AM,42.8,42.8,100,30.08,3.0,NW,2.3,-,N/A,,Clear,320,2013-01-09 12:13:00
4:58 AM,42.1,42.1,100,30.09,6.0,NNW,2.3,-,N/A,,Clear,340,2013-01-09 12:58:00
5:13 AM,42.8,42.8,100,30.09,2.5,NW,1.2,-,N/A,,Clear,310,2013-01-09 13:13:00
5:18 AM,42.8,42.8,100,30.09,0.8,Calm,Calm,-,N/A,,Clear,0,2013-01-09 13:18:00
5:23 AM,42.8,42.8,100,30.09,0.5,Calm,Calm,-,N/A,Fog,Fog,0,2013-01-09 13:23:00
5:28 AM,42.8,42.8,100,30.09,0.8,Calm,Calm,-,N/A,,Clear,0,2013-01-09 13:28:00
5:33 AM,42.8,42.8,100,30.10,1.0,Calm,Calm,-,N/A,,Clear,0,2013-01-09 13:33:00
5:38 AM,41.0,41.0,100,30.10,2.0,Calm,Calm,-,N/A,,Clear,0,2013-01-09 13:38:00
5:43 AM,41.0,41.0,100,30.10,3.0,Calm,Calm,-,N/A,,Clear,0,2013-01-09 13:43:00
5:53 AM,41.0,41.0,100,30.10,1.8,Calm,Calm,-,N/A,,Clear,0,2013-01-09 13:53:00
5:58 AM,41.5,41.5,100,30.11,1.5,Calm,Calm,-,N/A,,Clear,0,2013-01-09 13:58:00
6:13 AM,42.8,42.8,100,30.11,2.5,Calm,Calm,-,N/A,,Partly Cloudy,0,2013-01-09 14:13:00
6:28 AM,42.8,42.8,100,30.11,0.5,Calm,Calm,-,N/A,Fog,Fog,0,2013-01-09 14:28:00
6:58 AM,41.7,41.7,100,30.12,6.0,NE,2.3,-,N/A,,Scattered Clouds,50,2013-01-09 14:58:00
7:58 AM,42.3,42.3,100,30.14,10.0,NE,2.3,-,N/A,,Mostly Cloudy,40,2013-01-09 15:58:00
8:58 AM,49.6,49.6,100,30.14,10.0,East,3.5,-,N/A,,Mostly Cloudy,80,2013-01-09 16:58:00
9:58 AM,55.2,55.2,100,30.14,7.0,Calm,Calm,-,N/A,,Mostly Cloudy,0,2013-01-09 17:58:00
10:58 AM,60.6,46.2,59,30.13,7.0,Variable,4.6,-,N/A,,Mostly Cloudy,0,2013-01-09 18:58:00
11:58 AM,61.5,47.1,59,30.11,7.0,SSW,4.6,-,N/A,,Overcast,200,2013-01-09 19:58:00
12:58 PM,63.1,46.6,55,30.07,7.0,South,3.5,-,N/A,,Overcast,190,2013-01-09 20:58:00
1:58 PM,64.2,45.9,51,30.07,7.0,SSW,5.8,-,N/A,,Mostly Cloudy,200,2013-01-09 21:58:00
2:58 PM,60.1,51.8,74,30.06,7.0,SSW,9.2,-,N/A,,Overcast,200,2013-01-09 22:58:00
3:58 PM,57.6,54.1,88,30.06,7.0,South,8.1,-,N/A,,Overcast,190,2013-01-09 23:58:00
4:25 PM,55.4,55.4,100,30.05,5.0,South,6.9,-,N/A,,Overcast,180,2013-01-10 00:25:00
4:45 PM,55.4,55.4,100,30.04,3.0,South,5.8,-,N/A,,Overcast,170,2013-01-10 00:45:00
4:58 PM,54.3,54.3,100,30.05,3.0,South,5.8,-,N/A,,Overcast,180,2013-01-10 00:58:00
5:58 PM,54.0,54.0,100,30.06,3.0,SE,5.8,-,N/A,,Overcast,140,2013-01-10 01:58:00
6:50 PM,53.6,53.6,100,30.05,7.0,ESE,4.6,-,N/A,,Mostly Cloudy,120,2013-01-10 02:50:00
6:58 PM,54.0,54.0,100,30.06,7.0,ESE,4.6,-,N/A,,Mostly Cloudy,120,2013-01-10 02:58:00
7:08 PM,53.6,53.6,100,30.06,10.0,SE,3.5,-,N/A,,Mostly Cloudy,140,2013-01-10 03:08:00
7:58 PM,54.5,54.5,100,30.06,10.0,SE,3.5,-,N/A,,Overcast,140,2013-01-10 03:58:00
8:23 PM,55.4,51.8,88,30.05,10.0,SE,3.5,-,N/A,,Overcast,130,2013-01-10 04:23:00
8:58 PM,55.4,49.8,81,30.04,10.0,South,4.6,-,N/A,,Overcast,180,2013-01-10 04:58:00
9:43 PM,55.4,50.0,82,30.04,10.0,East,4.6,-,N/A,,Overcast,100,2013-01-10 05:43:00
9:58 PM,54.5,49.3,83,30.05,10.0,ESE,3.5,-,N/A,,Overcast,110,2013-01-10 05:58:00
10:58 PM,54.7,48.7,80,30.05,10.0,SE,2.3,-,N/A,,Overcast,140,2013-01-10 06:58:00
11:03 PM,55.4,48.2,77,30.04,10.0,SSE,3.5,-,N/A,,Overcast,150,2013-01-10 07:03:00
11:58 PM,54.1,49.6,85,30.03,10.0,East,2.3,-,N/A,,Overcast,80,2013-01-10 07:58:00